• Join FlightAware (Why Join?)
  • Login
  • US Flag 
Trick or treat! (Boo!!) 
07:38AM EDT


 

Airport Tracker/Info


-or-


 

Live Flight TrackerFlight Track Log ✈ JZA7819 ✈ 06-May-2013 ✈ CYYZ - CYSB

Flight Track Log - Related Links

Times and Time Zones

All times are in EDT time to prevent confusion due to time zone crossing. See the JZA7819 flight status page for this flight to view local times or setup timezone preferences in your user account.

Time Position Orientation Groundspeed Altitude Reporting Facility
EDT Latitude Longitude Course Direction KTS MPH feet Rate Location/Type
10:56PM 43.6667 -79.6167 360° North 20 23 500  Level Toronto Center
10:57PM 43.6667 -79.6167 360° North 10 12 500  Level Toronto Center
10:58PM 43.6667 -79.6167 144° Southeast 40 46 500  Level Toronto Center
11:00PM 43.7264 -79.6316 350° North  Level FlightAware Approximate
11:00PM 43.6667 -79.5833 350° North 10 12 500  Level Toronto Center
11:01PM 43.6500 -79.6167 235° Southwest 20 23 500  Level Toronto Center
11:02PM 43.6500 -79.6167 235° Southwest 10 12 500 120 Level Toronto Center
11:05PM 43.7524 -79.6553 346° North  Level Estimated
11:07PM 43.6667 -79.5833 23° Northeast 120 138 1,300  Level Toronto Center
11:08PM 43.7167 -79.5833 360° North 160 184 2,400 1,140 Climbing Toronto Center
11:09PM 43.7667 -79.6167 334° Northwest 160 184 3,600 840 Climbing Toronto Center
11:10PM 43.8000 -79.6167 360° North 170 196 4,100 660 Climbing Toronto Center
11:11PM 43.8500 -79.6333 346° North 190 219 5,000 540 Climbing Toronto Center
11:12PM 44.2249 -79.8353 350° North  Level Estimated
11:12PM 43.9167 -79.6333 360° North 210 242 5,200  Level Toronto Center
11:13PM 44.2892 -79.7967 23° Northeast  Level FlightAware Approximate
11:13PM 43.9833 -79.6500 350° North 220 253 6,000  Level Toronto Center
11:14PM 44.0333 -79.6833 334° Northwest 210 242 6,900 780 Climbing Toronto Center
11:15PM 44.0833 -79.7000 347° North 210 242 7,600 780 Climbing Toronto Center
11:16PM 44.1500 -79.7333 340° North 210 242 8,500 780 Climbing Toronto Center
11:18PM 44.2127 -79.7871 328° Northwest  Level FlightAware Approximate
11:18PM 44.2667 -79.7667 328° Northwest 210 242 10,100  Level Toronto Center
11:19PM 44.3167 -79.8000 335° Northwest 210 242 10,800 660 Climbing Toronto Center
11:20PM 44.3667 -79.8167 347° North 210 242 11,500 660 Climbing Toronto Center
11:21PM 44.4333 -79.8500 340° North 220 253 12,200 720 Climbing Toronto Center
11:22PM 44.4833 -79.8667 347° North 220 253 13,000 780 Climbing Toronto Center
11:23PM 44.5500 -79.8833 350° North 210 242 13,800 480 Climbing Toronto Center
11:24PM 44.6000 -79.9167 335° Northwest 220 253 14,000 60 Climbing Toronto Center
11:25PM 44.6667 -79.9333 350° North 240 276 14,000  Level Toronto Center
11:26PM 44.7333 -79.9667 340° North 260 299 14,000  Level Toronto Center
11:27PM 44.8000 -79.9833 350° North 260 299 14,000  Level Toronto Center
11:28PM 44.8833 -80.0333 337° Northwest 260 299 14,000  Level Toronto Center
11:29PM 44.9500 -80.0500 350° North 260 299 14,000  Level Toronto Center
11:30PM 45.0167 -80.0833 341° North 260 299 14,000  Level Toronto Center
11:31PM 45.0833 -80.1333 332° Northwest 260 299 14,000  Level Toronto Center
11:32PM 45.1500 -80.1833 332° Northwest 260 299 14,000  Level Toronto Center
11:33PM 45.2167 -80.2000 350° North 260 299 14,000  Level Toronto Center
11:34PM 45.2833 -80.2500 332° Northwest 260 299 14,000  Level Toronto Center
11:35PM 45.3500 -80.2667 350° North 260 299 14,000  Level Toronto Center
11:36PM 45.4167 -80.3167 332° Northwest 260 299 14,000  Level Toronto Center
11:37PM 45.5000 -80.3500 344° North 260 299 14,000  Level Toronto Center
11:38PM 45.5667 -80.4000 332° Northwest 260 299 14,000  Level Toronto Center
11:39PM 45.6167 -80.4167 347° North 260 299 14,000  Level Toronto Center
11:40PM 45.7000 -80.4667 337° Northwest 260 299 14,000  Level Toronto Center
11:41PM 45.7667 -80.5167 332° Northwest 260 299 14,000  Level Toronto Center
11:42PM 45.8333 -80.5333 350° North 260 299 14,000 -540 Level Toronto Center
11:43PM 45.9000 -80.5833 332° Northwest 270 311 13,000 -1,080 Descending Toronto Center
11:44PM 45.9833 -80.6333 337° Northwest 290 334 11,900 -1,080 Descending Toronto Center
11:45PM 46.0500 -80.6667 341° North 290 334 10,900 -1,080 Descending Toronto Center
11:46PM 46.1167 -80.7167 333° Northwest 280 322 9,800 -1,140 Descending Toronto Center
11:47PM 46.1833 -80.7667 333° Northwest 270 311 8,700 -1,020 Descending Toronto Center
11:48PM 46.2500 -80.7833 350° North 260 299 7,800 -960 Descending Toronto Center
11:49PM 46.3333 -80.8333 337° Northwest 260 299 6,800 -1,020 Descending Toronto Center
11:50PM 46.3833 -80.8667 335° Northwest 260 299 5,800 -1,020 Descending Toronto Center
11:51PM 46.4500 -80.8833 350° North 240 276 4,800 -1,080 Descending Toronto Center
11:52PM 46.5000 -80.8667 13° North 190 219 3,700 -1,140 Descending Toronto Center